sensor_id;sensor_type;location;lat;lon;timestamp;P1;durP1;ratioP1;P2;durP2;ratioP2
6037;SDS011;3047;42.600;23.470;2023-08-06T00:00:08;1.60;;;1.60;;
6037;SDS011;3047;42.600;23.470;2023-08-06T00:02:35;1.40;;;1.40;;
6037;SDS011;3047;42.600;23.470;2023-08-06T00:05:02;1.58;;;1.58;;
6037;SDS011;3047;42.600;23.470;2023-08-06T00:07:29;1.52;;;1.52;;
6037;SDS011;3047;42.600;23.470;2023-08-06T00:09:56;1.60;;;1.60;;
6037;SDS011;3047;42.600;23.470;2023-08-06T00:12:22;1.45;;;1.45;;
6037;SDS011;3047;42.600;23.470;2023-08-06T00:14:51;1.50;;;1.50;;
6037;SDS011;3047;42.600;23.470;2023-08-06T00:17:18;1.55;;;1.55;;
6037;SDS011;3047;42.600;23.470;2023-08-06T00:19:45;1.42;;;1.42;;
6037;SDS011;3047;42.600;23.470;2023-08-06T00:22:12;1.17;;;1.17;;
6037;SDS011;3047;42.600;23.470;2023-08-06T00:24:38;1.25;;;1.25;;
6037;SDS011;3047;42.600;23.470;2023-08-06T00:27:05;1.45;;;1.45;;
6037;SDS011;3047;42.600;23.470;2023-08-06T00:29:32;1.60;;;1.17;;
6037;SDS011;3047;42.600;23.470;2023-08-06T00:32:00;1.63;;;1.63;;
6037;SDS011;3047;42.600;23.470;2023-08-06T00:34:27;1.58;;;1.58;;
6037;SDS011;3047;42.600;23.470;2023-08-06T00:36:53;1.52;;;1.52;;
6037;SDS011;3047;42.600;23.470;2023-08-06T00:39:20;1.50;;;1.50;;
6037;SDS011;3047;42.600;23.470;2023-08-06T00:41:47;1.35;;;1.35;;
6037;SDS011;3047;42.600;23.470;2023-08-06T00:44:13;1.67;;;1.67;;
6037;SDS011;3047;42.600;23.470;2023-08-06T00:46:40;1.30;;;1.30;;
6037;SDS011;3047;42.600;23.470;2023-08-06T00:49:08;1.42;;;1.42;;
6037;SDS011;3047;42.600;23.470;2023-08-06T00:51:35;1.50;;;1.40;;
6037;SDS011;3047;42.600;23.470;2023-08-06T00:54:02;1.33;;;1.33;;
6037;SDS011;3047;42.600;23.470;2023-08-06T00:56:28;1.40;;;1.40;;
6037;SDS011;3047;42.600;23.470;2023-08-06T00:58:55;1.80;;;1.70;;
6037;SDS011;3047;42.600;23.470;2023-08-06T01:01:22;1.52;;;1.52;;
6037;SDS011;3047;42.600;23.470;2023-08-06T01:03:49;1.48;;;1.48;;
6037;SDS011;3047;42.600;23.470;2023-08-06T01:06:17;1.42;;;1.42;;
6037;SDS011;3047;42.600;23.470;2023-08-06T01:08:51;1.38;;;1.27;;
6037;SDS011;3047;42.600;23.470;2023-08-06T01:11:26;1.48;;;1.48;;
6037;SDS011;3047;42.600;23.470;2023-08-06T01:13:58;1.23;;;1.23;;
6037;SDS011;3047;42.600;23.470;2023-08-06T01:16:32;1.40;;;1.40;;
6037;SDS011;3047;42.600;23.470;2023-08-06T01:18:59;1.65;;;1.60;;
6037;SDS011;3047;42.600;23.470;2023-08-06T01:21:27;1.73;;;1.73;;
6037;SDS011;3047;42.600;23.470;2023-08-06T01:23:54;1.40;;;1.40;;
6037;SDS011;3047;42.600;23.470;2023-08-06T01:26:22;1.10;;;1.10;;
6037;SDS011;3047;42.600;23.470;2023-08-06T01:28:55;1.40;;;1.40;;
6037;SDS011;3047;42.600;23.470;2023-08-06T01:31:26;1.52;;;1.52;;
6037;SDS011;3047;42.600;23.470;2023-08-06T01:33:56;1.40;;;1.40;;
6037;SDS011;3047;42.600;23.470;2023-08-06T01:36:25;1.45;;;1.45;;
6037;SDS011;3047;42.600;23.470;2023-08-06T01:38:54;1.20;;;1.20;;
6037;SDS011;3047;42.600;23.470;2023-08-06T01:41:22;1.15;;;1.15;;
6037;SDS011;3047;42.600;23.470;2023-08-06T01:43:49;1.70;;;1.70;;
6037;SDS011;3047;42.600;23.470;2023-08-06T01:46:14;1.27;;;1.27;;
6037;SDS011;3047;42.600;23.470;2023-08-06T01:48:41;1.48;;;1.48;;
6037;SDS011;3047;42.600;23.470;2023-08-06T01:51:08;1.42;;;1.42;;
6037;SDS011;3047;42.600;23.470;2023-08-06T01:53:36;1.40;;;1.40;;
6037;SDS011;3047;42.600;23.470;2023-08-06T01:56:03;1.27;;;1.27;;
6037;SDS011;3047;42.600;23.470;2023-08-06T01:58:29;1.25;;;1.25;;
6037;SDS011;3047;42.600;23.470;2023-08-06T02:00:56;1.38;;;1.38;;
6037;SDS011;3047;42.600;23.470;2023-08-06T02:03:23;1.52;;;1.52;;
6037;SDS011;3047;42.600;23.470;2023-08-06T02:05:49;1.42;;;1.42;;
6037;SDS011;3047;42.600;23.470;2023-08-06T02:08:16;1.40;;;1.40;;
6037;SDS011;3047;42.600;23.470;2023-08-06T02:10:45;1.50;;;1.50;;
6037;SDS011;3047;42.600;23.470;2023-08-06T02:13:12;1.00;;;1.00;;
6037;SDS011;3047;42.600;23.470;2023-08-06T02:15:41;1.42;;;1.42;;
6037;SDS011;3047;42.600;23.470;2023-08-06T02:18:08;1.33;;;1.33;;
6037;SDS011;3047;42.600;23.470;2023-08-06T02:20:35;1.13;;;1.13;;
6037;SDS011;3047;42.600;23.470;2023-08-06T02:23:02;1.33;;;1.33;;
6037;SDS011;3047;42.600;23.470;2023-08-06T02:25:28;1.42;;;1.42;;
6037;SDS011;3047;42.600;23.470;2023-08-06T02:27:56;1.38;;;1.38;;
6037;SDS011;3047;42.600;23.470;2023-08-06T02:30:23;0.60;;;0.60;;
6037;SDS011;3047;42.600;23.470;2023-08-06T02:32:50;1.95;;;1.95;;
6037;SDS011;3047;42.600;23.470;2023-08-06T02:35:16;1.30;;;1.30;;
6037;SDS011;3047;42.600;23.470;2023-08-06T02:37:43;1.15;;;1.15;;
6037;SDS011;3047;42.600;23.470;2023-08-06T02:40:10;1.30;;;1.30;;
6037;SDS011;3047;42.600;23.470;2023-08-06T02:42:37;1.30;;;1.30;;
6037;SDS011;3047;42.600;23.470;2023-08-06T02:45:06;1.25;;;1.25;;
6037;SDS011;3047;42.600;23.470;2023-08-06T02:47:33;2.00;;;1.92;;
6037;SDS011;3047;42.600;23.470;2023-08-06T02:50:00;1.38;;;1.38;;
6037;SDS011;3047;42.600;23.470;2023-08-06T02:52:26;1.40;;;1.40;;
6037;SDS011;3047;42.600;23.470;2023-08-06T02:54:53;1.23;;;1.23;;
6037;SDS011;3047;42.600;23.470;2023-08-06T02:57:20;1.45;;;1.45;;
6037;SDS011;3047;42.600;23.470;2023-08-06T02:59:46;1.52;;;1.52;;
6037;SDS011;3047;42.600;23.470;2023-08-06T03:02:14;1.05;;;1.05;;
6037;SDS011;3047;42.600;23.470;2023-08-06T03:04:41;1.20;;;1.20;;
6037;SDS011;3047;42.600;23.470;2023-08-06T03:07:08;1.60;;;1.60;;
6037;SDS011;3047;42.600;23.470;2023-08-06T03:09:34;1.30;;;1.30;;
6037;SDS011;3047;42.600;23.470;2023-08-06T03:12:01;1.05;;;1.00;;
6037;SDS011;3047;42.600;23.470;2023-08-06T03:14:28;1.35;;;1.35;;
6037;SDS011;3047;42.600;23.470;2023-08-06T03:16:54;1.70;;;1.70;;
6037;SDS011;3047;42.600;23.470;2023-08-06T03:19:22;3.00;;;1.30;;
6037;SDS011;3047;42.600;23.470;2023-08-06T03:21:49;1.25;;;1.25;;
6037;SDS011;3047;42.600;23.470;2023-08-06T03:24:16;1.25;;;1.25;;
6037;SDS011;3047;42.600;23.470;2023-08-06T03:26:42;1.10;;;1.10;;
6037;SDS011;3047;42.600;23.470;2023-08-06T03:29:09;0.98;;;0.98;;
6037;SDS011;3047;42.600;23.470;2023-08-06T03:31:36;1.10;;;1.10;;
6037;SDS011;3047;42.600;23.470;2023-08-06T03:34:02;1.00;;;1.00;;
6037;SDS011;3047;42.600;23.470;2023-08-06T03:36:30;0.77;;;0.77;;
6037;SDS011;3047;42.600;23.470;2023-08-06T03:38:57;1.20;;;1.20;;
6037;SDS011;3047;42.600;23.470;2023-08-06T03:41:24;1.10;;;1.10;;
6037;SDS011;3047;42.600;23.470;2023-08-06T03:43:50;0.80;;;0.80;;
6037;SDS011;3047;42.600;23.470;2023-08-06T03:46:17;0.95;;;0.95;;
6037;SDS011;3047;42.600;23.470;2023-08-06T05:11:22;1.85;;;1.85;;
6037;SDS011;3047;42.600;23.470;2023-08-06T05:13:50;1.73;;;1.73;;
6037;SDS011;3047;42.600;23.470;2023-08-06T05:16:17;1.50;;;1.50;;
6037;SDS011;3047;42.600;23.470;2023-08-06T05:18:43;1.50;;;1.42;;
6037;SDS011;3047;42.600;23.470;2023-08-06T05:21:10;1.20;;;1.20;;
6037;SDS011;3047;42.600;23.470;2023-08-06T05:23:37;1.10;;;1.10;;
6037;SDS011;3047;42.600;23.470;2023-08-06T05:26:03;1.13;;;1.13;;
6037;SDS011;3047;42.600;23.470;2023-08-06T05:28:31;1.33;;;1.33;;
6037;SDS011;3047;42.600;23.470;2023-08-06T05:30:58;1.60;;;1.50;;
6037;SDS011;3047;42.600;23.470;2023-08-06T05:33:25;1.33;;;1.33;;
6037;SDS011;3047;42.600;23.470;2023-08-06T05:35:51;1.65;;;1.65;;
6037;SDS011;3047;42.600;23.470;2023-08-06T05:38:18;1.75;;;1.75;;
6037;SDS011;3047;42.600;23.470;2023-08-06T05:40:45;1.40;;;1.40;;
6037;SDS011;3047;42.600;23.470;2023-08-06T05:43:12;1.25;;;1.25;;
6037;SDS011;3047;42.600;23.470;2023-08-06T05:45:43;1.20;;;1.20;;
6037;SDS011;3047;42.600;23.470;2023-08-06T05:48:10;1.13;;;1.13;;
6037;SDS011;3047;42.600;23.470;2023-08-06T05:50:37;1.40;;;1.40;;
6037;SDS011;3047;42.600;23.470;2023-08-06T05:53:04;1.55;;;1.55;;
6037;SDS011;3047;42.600;23.470;2023-08-06T05:55:30;1.20;;;1.20;;
6037;SDS011;3047;42.600;23.470;2023-08-06T05:57:57;1.27;;;1.27;;
6037;SDS011;3047;42.600;23.470;2023-08-06T06:00:24;1.20;;;1.20;;
6037;SDS011;3047;42.600;23.470;2023-08-06T06:02:52;1.55;;;1.10;;
6037;SDS011;3047;42.600;23.470;2023-08-06T06:05:19;1.20;;;1.17;;
6037;SDS011;3047;42.600;23.470;2023-08-06T06:07:45;1.60;;;1.50;;
6037;SDS011;3047;42.600;23.470;2023-08-06T06:10:12;2.03;;;1.85;;
6037;SDS011;3047;42.600;23.470;2023-08-06T06:12:40;1.20;;;1.20;;
6037;SDS011;3047;42.600;23.470;2023-08-06T06:15:07;1.52;;;1.52;;
6037;SDS011;3047;42.600;23.470;2023-08-06T06:17:35;1.70;;;1.60;;
6037;SDS011;3047;42.600;23.470;2023-08-06T06:20:03;2.15;;;2.05;;
6037;SDS011;3047;42.600;23.470;2023-08-06T06:22:30;1.27;;;1.27;;
6037;SDS011;3047;42.600;23.470;2023-08-06T06:24:57;1.40;;;1.40;;
6037;SDS011;3047;42.600;23.470;2023-08-06T06:27:24;1.02;;;1.02;;
6037;SDS011;3047;42.600;23.470;2023-08-06T06:29:51;1.17;;;1.17;;
6037;SDS011;3047;42.600;23.470;2023-08-06T06:32:19;1.45;;;1.35;;
6037;SDS011;3047;42.600;23.470;2023-08-06T06:34:46;1.35;;;1.35;;
6037;SDS011;3047;42.600;23.470;2023-08-06T06:37:14;0.95;;;0.95;;
6037;SDS011;3047;42.600;23.470;2023-08-06T06:39:41;1.80;;;1.73;;
6037;SDS011;3047;42.600;23.470;2023-08-06T06:42:09;1.25;;;1.25;;
6037;SDS011;3047;42.600;23.470;2023-08-06T06:44:35;1.35;;;1.35;;
6037;SDS011;3047;42.600;23.470;2023-08-06T06:47:02;1.45;;;1.45;;
6037;SDS011;3047;42.600;23.470;2023-08-06T06:49:29;2.17;;;1.50;;
6037;SDS011;3047;42.600;23.470;2023-08-06T06:51:56;1.92;;;1.80;;
6037;SDS011;3047;42.600;23.470;2023-08-06T06:54:24;1.00;;;1.00;;
6037;SDS011;3047;42.600;23.470;2023-08-06T06:56:51;0.73;;;0.73;;
6037;SDS011;3047;42.600;23.470;2023-08-06T06:59:17;1.30;;;1.30;;
6037;SDS011;3047;42.600;23.470;2023-08-06T07:01:44;1.90;;;1.80;;
6037;SDS011;3047;42.600;23.470;2023-08-06T07:04:11;1.52;;;1.42;;
6037;SDS011;3047;42.600;23.470;2023-08-06T07:06:37;0.90;;;0.90;;
6037;SDS011;3047;42.600;23.470;2023-08-06T07:09:04;1.67;;;1.60;;
6037;SDS011;3047;42.600;23.470;2023-08-06T07:11:32;1.00;;;1.00;;
6037;SDS011;3047;42.600;23.470;2023-08-06T07:13:59;1.23;;;1.23;;
6037;SDS011;3047;42.600;23.470;2023-08-06T07:16:25;1.13;;;1.13;;
6037;SDS011;3047;42.600;23.470;2023-08-06T07:18:53;1.10;;;1.10;;
6037;SDS011;3047;42.600;23.470;2023-08-06T07:21:20;1.55;;;1.55;;
6037;SDS011;3047;42.600;23.470;2023-08-06T07:23:47;1.42;;;1.42;;
6037;SDS011;3047;42.600;23.470;2023-08-06T07:26:15;1.23;;;1.23;;
6037;SDS011;3047;42.600;23.470;2023-08-06T07:28:43;0.65;;;0.65;;
6037;SDS011;3047;42.600;23.470;2023-08-06T07:31:10;0.93;;;0.93;;
6037;SDS011;3047;42.600;23.470;2023-08-06T07:33:37;0.77;;;0.77;;
6037;SDS011;3047;42.600;23.470;2023-08-06T07:36:07;1.30;;;1.30;;
6037;SDS011;3047;42.600;23.470;2023-08-06T07:38:35;0.88;;;0.88;;
6037;SDS011;3047;42.600;23.470;2023-08-06T07:41:02;0.95;;;0.95;;
6037;SDS011;3047;42.600;23.470;2023-08-06T07:43:28;1.58;;;1.58;;
6037;SDS011;3047;42.600;23.470;2023-08-06T07:45:58;1.08;;;1.08;;
6037;SDS011;3047;42.600;23.470;2023-08-06T07:48:26;0.93;;;0.93;;
6037;SDS011;3047;42.600;23.470;2023-08-06T07:50:53;0.88;;;0.88;;
6037;SDS011;3047;42.600;23.470;2023-08-06T07:53:20;1.50;;;1.50;;
6037;SDS011;3047;42.600;23.470;2023-08-06T07:55:48;0.90;;;0.90;;
6037;SDS011;3047;42.600;23.470;2023-08-06T07:58:16;0.85;;;0.85;;
6037;SDS011;3047;42.600;23.470;2023-08-06T08:00:42;0.90;;;0.90;;
6037;SDS011;3047;42.600;23.470;2023-08-06T08:03:12;1.05;;;1.05;;
6037;SDS011;3047;42.600;23.470;2023-08-06T08:05:39;1.27;;;1.27;;
6037;SDS011;3047;42.600;23.470;2023-08-06T08:08:06;1.08;;;1.08;;
6037;SDS011;3047;42.600;23.470;2023-08-06T08:10:33;1.27;;;1.27;;
6037;SDS011;3047;42.600;23.470;2023-08-06T08:13:00;1.10;;;1.10;;
6037;SDS011;3047;42.600;23.470;2023-08-06T08:15:27;1.20;;;1.20;;
6037;SDS011;3047;42.600;23.470;2023-08-06T08:17:56;1.23;;;1.23;;
6037;SDS011;3047;42.600;23.470;2023-08-06T08:20:24;1.00;;;1.00;;
6037;SDS011;3047;42.600;23.470;2023-08-06T08:22:56;1.35;;;1.35;;
6037;SDS011;3047;42.600;23.470;2023-08-06T08:25:23;1.38;;;1.38;;
6037;SDS011;3047;42.600;23.470;2023-08-06T08:27:50;1.05;;;1.05;;
6037;SDS011;3047;42.600;23.470;2023-08-06T08:30:16;1.60;;;1.60;;
6037;SDS011;3047;42.600;23.470;2023-08-06T08:32:43;1.33;;;1.33;;
6037;SDS011;3047;42.600;23.470;2023-08-06T08:35:10;1.17;;;1.17;;
6037;SDS011;3047;42.600;23.470;2023-08-06T08:37:39;1.30;;;1.30;;
6037;SDS011;3047;42.600;23.470;2023-08-06T08:40:06;1.30;;;1.30;;
6037;SDS011;3047;42.600;23.470;2023-08-06T08:42:34;4.60;;;1.48;;
6037;SDS011;3047;42.600;23.470;2023-08-06T08:45:01;1.50;;;1.50;;
6037;SDS011;3047;42.600;23.470;2023-08-06T08:47:28;1.83;;;1.80;;
6037;SDS011;3047;42.600;23.470;2023-08-06T08:49:56;1.58;;;1.48;;
6037;SDS011;3047;42.600;23.470;2023-08-06T08:52:24;1.65;;;1.65;;
6037;SDS011;3047;42.600;23.470;2023-08-06T08:54:56;2.50;;;1.83;;
6037;SDS011;3047;42.600;23.470;2023-08-06T08:57:25;2.58;;;2.00;;
6037;SDS011;3047;42.600;23.470;2023-08-06T08:59:52;2.00;;;1.92;;
6037;SDS011;3047;42.600;23.470;2023-08-06T09:02:19;1.92;;;1.83;;
6037;SDS011;3047;42.600;23.470;2023-08-06T09:04:47;2.15;;;1.95;;
6037;SDS011;3047;42.600;23.470;2023-08-06T09:07:17;2.33;;;2.22;;
6037;SDS011;3047;42.600;23.470;2023-08-06T09:09:46;1.75;;;1.75;;
6037;SDS011;3047;42.600;23.470;2023-08-06T09:12:16;2.10;;;2.00;;
6037;SDS011;3047;42.600;23.470;2023-08-06T09:14:43;3.72;;;1.90;;
6037;SDS011;3047;42.600;23.470;2023-08-06T09:17:10;2.22;;;2.13;;
6037;SDS011;3047;42.600;23.470;2023-08-06T09:19:37;1.73;;;1.67;;
6037;SDS011;3047;42.600;23.470;2023-08-06T09:22:03;2.00;;;2.00;;
6037;SDS011;3047;42.600;23.470;2023-08-06T09:24:38;2.08;;;1.98;;
6037;SDS011;3047;42.600;23.470;2023-08-06T09:27:05;2.75;;;2.47;;
6037;SDS011;3047;42.600;23.470;2023-08-06T09:29:33;1.95;;;1.95;;
6037;SDS011;3047;42.600;23.470;2023-08-06T09:31:59;2.20;;;2.10;;
6037;SDS011;3047;42.600;23.470;2023-08-06T09:34:26;2.20;;;2.10;;
6037;SDS011;3047;42.600;23.470;2023-08-06T09:36:53;6.47;;;2.05;;
6037;SDS011;3047;42.600;23.470;2023-08-06T09:39:21;2.50;;;2.30;;
6037;SDS011;3047;42.600;23.470;2023-08-06T09:41:55;1.70;;;1.60;;
6037;SDS011;3047;42.600;23.470;2023-08-06T09:44:23;2.20;;;2.15;;
6037;SDS011;3047;42.600;23.470;2023-08-06T09:46:52;2.15;;;1.95;;
6037;SDS011;3047;42.600;23.470;2023-08-06T09:49:20;2.10;;;2.10;;
6037;SDS011;3047;42.600;23.470;2023-08-06T09:51:52;1.75;;;1.75;;
6037;SDS011;3047;42.600;23.470;2023-08-06T09:54:22;1.92;;;1.92;;
6037;SDS011;3047;42.600;23.470;2023-08-06T09:56:49;1.77;;;1.70;;
6037;SDS011;3047;42.600;23.470;2023-08-06T09:59:17;1.48;;;1.48;;
6037;SDS011;3047;42.600;23.470;2023-08-06T10:01:45;2.03;;;1.92;;
6037;SDS011;3047;42.600;23.470;2023-08-06T10:04:14;2.22;;;2.10;;
6037;SDS011;3047;42.600;23.470;2023-08-06T10:06:43;2.10;;;2.00;;
6037;SDS011;3047;42.600;23.470;2023-08-06T10:09:13;2.05;;;2.05;;
6037;SDS011;3047;42.600;23.470;2023-08-06T10:11:40;2.60;;;2.40;;
6037;SDS011;3047;42.600;23.470;2023-08-06T10:14:10;1.65;;;1.63;;
6037;SDS011;3047;42.600;23.470;2023-08-06T10:16:39;2.05;;;1.95;;
6037;SDS011;3047;42.600;23.470;2023-08-06T10:19:07;1.77;;;1.77;;
6037;SDS011;3047;42.600;23.470;2023-08-06T10:21:39;2.75;;;2.55;;
6037;SDS011;3047;42.600;23.470;2023-08-06T10:24:07;2.20;;;2.10;;
6037;SDS011;3047;42.600;23.470;2023-08-06T10:26:36;2.45;;;2.35;;
6037;SDS011;3047;42.600;23.470;2023-08-06T10:32:05;2.10;;;2.00;;
6037;SDS011;3047;42.600;23.470;2023-08-06T10:37:22;2.67;;;2.47;;
6037;SDS011;3047;42.600;23.470;2023-08-06T10:39:50;2.28;;;2.15;;
6037;SDS011;3047;42.600;23.470;2023-08-06T10:42:20;1.95;;;1.85;;
6037;SDS011;3047;42.600;23.470;2023-08-06T10:47:41;1.95;;;1.95;;
6037;SDS011;3047;42.600;23.470;2023-08-06T10:50:10;1.77;;;1.67;;
6037;SDS011;3047;42.600;23.470;2023-08-06T10:52:39;1.88;;;1.88;;
6037;SDS011;3047;42.600;23.470;2023-08-06T10:55:06;1.75;;;1.65;;
6037;SDS011;3047;42.600;23.470;2023-08-06T10:57:34;1.60;;;1.60;;
6037;SDS011;3047;42.600;23.470;2023-08-06T11:00:01;1.73;;;1.73;;
6037;SDS011;3047;42.600;23.470;2023-08-06T11:02:27;1.73;;;1.73;;
6037;SDS011;3047;42.600;23.470;2023-08-06T11:04:54;1.90;;;1.80;;
6037;SDS011;3047;42.600;23.470;2023-08-06T11:07:21;1.63;;;1.63;;
6037;SDS011;3047;42.600;23.470;2023-08-06T11:09:51;3.03;;;1.63;;
6037;SDS011;3047;42.600;23.470;2023-08-06T11:12:19;1.80;;;1.70;;
6037;SDS011;3047;42.600;23.470;2023-08-06T11:14:49;1.60;;;1.50;;
6037;SDS011;3047;42.600;23.470;2023-08-06T11:17:16;2.10;;;2.00;;
6037;SDS011;3047;42.600;23.470;2023-08-06T11:19:43;1.75;;;1.75;;
6037;SDS011;3047;42.600;23.470;2023-08-06T11:22:10;1.90;;;1.90;;
6037;SDS011;3047;42.600;23.470;2023-08-06T11:24:37;1.70;;;1.70;;
6037;SDS011;3047;42.600;23.470;2023-08-06T11:27:12;1.55;;;1.55;;
6037;SDS011;3047;42.600;23.470;2023-08-06T11:29:40;1.80;;;1.80;;
6037;SDS011;3047;42.600;23.470;2023-08-06T11:32:07;1.67;;;1.67;;
6037;SDS011;3047;42.600;23.470;2023-08-06T11:34:34;1.77;;;1.77;;
6037;SDS011;3047;42.600;23.470;2023-08-06T11:37:02;2.50;;;1.90;;
6037;SDS011;3047;42.600;23.470;2023-08-06T11:39:30;2.17;;;2.08;;
6037;SDS011;3047;42.600;23.470;2023-08-06T11:41:57;1.73;;;1.73;;
6037;SDS011;3047;42.600;23.470;2023-08-06T11:44:26;1.60;;;1.60;;
6037;SDS011;3047;42.600;23.470;2023-08-06T11:46:57;1.83;;;1.73;;
6037;SDS011;3047;42.600;23.470;2023-08-06T11:49:39;2.08;;;1.90;;
6037;SDS011;3047;42.600;23.470;2023-08-06T11:52:16;1.92;;;1.85;;
6037;SDS011;3047;42.600;23.470;2023-08-06T11:54:44;1.92;;;1.83;;
6037;SDS011;3047;42.600;23.470;2023-08-06T11:57:11;1.80;;;1.80;;
6037;SDS011;3047;42.600;23.470;2023-08-06T11:59:39;1.80;;;1.80;;
6037;SDS011;3047;42.600;23.470;2023-08-06T12:02:08;2.05;;;1.95;;
6037;SDS011;3047;42.600;23.470;2023-08-06T12:07:25;1.90;;;1.80;;
6037;SDS011;3047;42.600;23.470;2023-08-06T12:09:53;1.50;;;1.50;;
6037;SDS011;3047;42.600;23.470;2023-08-06T12:12:20;1.85;;;1.75;;
6037;SDS011;3047;42.600;23.470;2023-08-06T12:14:48;1.70;;;1.70;;
6037;SDS011;3047;42.600;23.470;2023-08-06T12:17:14;1.60;;;1.60;;
6037;SDS011;3047;42.600;23.470;2023-08-06T12:19:41;1.95;;;1.90;;
6037;SDS011;3047;42.600;23.470;2023-08-06T12:22:08;1.33;;;1.33;;
6037;SDS011;3047;42.600;23.470;2023-08-06T12:24:34;1.92;;;1.88;;
6037;SDS011;3047;42.600;23.470;2023-08-06T12:27:01;1.60;;;1.60;;
6037;SDS011;3047;42.600;23.470;2023-08-06T12:29:28;2.10;;;2.00;;
6037;SDS011;3047;42.600;23.470;2023-08-06T12:31:57;2.30;;;2.10;;
6037;SDS011;3047;42.600;23.470;2023-08-06T12:34:24;1.85;;;1.77;;
6037;SDS011;3047;42.600;23.470;2023-08-06T12:36:51;1.88;;;1.77;;
6037;SDS011;3047;42.600;23.470;2023-08-06T12:39:18;2.20;;;2.10;;
6037;SDS011;3047;42.600;23.470;2023-08-06T12:41:44;1.88;;;1.80;;
6037;SDS011;3047;42.600;23.470;2023-08-06T12:44:11;1.77;;;1.77;;
6037;SDS011;3047;42.600;23.470;2023-08-06T12:46:38;2.00;;;1.90;;
6037;SDS011;3047;42.600;23.470;2023-08-06T12:49:06;1.88;;;1.70;;
6037;SDS011;3047;42.600;23.470;2023-08-06T12:51:33;1.60;;;1.60;;
6037;SDS011;3047;42.600;23.470;2023-08-06T12:54:00;1.85;;;1.77;;
6037;SDS011;3047;42.600;23.470;2023-08-06T12:56:26;1.90;;;1.80;;
6037;SDS011;3047;42.600;23.470;2023-08-06T12:58:54;1.65;;;1.38;;
6037;SDS011;3047;42.600;23.470;2023-08-06T13:01:20;2.10;;;2.00;;
6037;SDS011;3047;42.600;23.470;2023-08-06T13:03:47;2.58;;;2.38;;
6037;SDS011;3047;42.600;23.470;2023-08-06T13:06:15;1.77;;;1.73;;
6037;SDS011;3047;42.600;23.470;2023-08-06T13:08:42;1.88;;;1.77;;
6037;SDS011;3047;42.600;23.470;2023-08-06T13:11:09;1.92;;;1.83;;
6037;SDS011;3047;42.600;23.470;2023-08-06T13:13:35;2.05;;;1.95;;
6037;SDS011;3047;42.600;23.470;2023-08-06T13:16:02;1.60;;;1.60;;
6037;SDS011;3047;42.600;23.470;2023-08-06T13:18:29;1.73;;;1.73;;
6037;SDS011;3047;42.600;23.470;2023-08-06T13:20:56;2.40;;;2.30;;
6037;SDS011;3047;42.600;23.470;2023-08-06T13:23:24;2.08;;;1.98;;
6037;SDS011;3047;42.600;23.470;2023-08-06T13:25:51;1.95;;;1.85;;
6037;SDS011;3047;42.600;23.470;2023-08-06T13:28:18;2.10;;;2.00;;
6037;SDS011;3047;42.600;23.470;2023-08-06T13:30:45;1.98;;;1.88;;
6037;SDS011;3047;42.600;23.470;2023-08-06T13:33:11;2.15;;;2.05;;
6037;SDS011;3047;42.600;23.470;2023-08-06T13:35:38;2.00;;;1.90;;
6037;SDS011;3047;42.600;23.470;2023-08-06T13:38:06;1.50;;;1.50;;
6037;SDS011;3047;42.600;23.470;2023-08-06T13:40:35;2.40;;;2.30;;
6037;SDS011;3047;42.600;23.470;2023-08-06T13:43:02;3.35;;;2.38;;
6037;SDS011;3047;42.600;23.470;2023-08-06T13:45:28;2.53;;;1.85;;
6037;SDS011;3047;42.600;23.470;2023-08-06T13:47:56;2.42;;;2.22;;
6037;SDS011;3047;42.600;23.470;2023-08-06T13:50:23;2.20;;;2.10;;
6037;SDS011;3047;42.600;23.470;2023-08-06T13:52:50;1.90;;;1.90;;
6037;SDS011;3047;42.600;23.470;2023-08-06T13:55:20;2.15;;;2.05;;
6037;SDS011;3047;42.600;23.470;2023-08-06T13:57:48;1.98;;;1.98;;
6037;SDS011;3047;42.600;23.470;2023-08-06T14:00:16;1.58;;;1.58;;
6037;SDS011;3047;42.600;23.470;2023-08-06T14:02:42;2.08;;;1.98;;
6037;SDS011;3047;42.600;23.470;2023-08-06T14:05:10;2.08;;;1.98;;
6037;SDS011;3047;42.600;23.470;2023-08-06T14:07:36;2.20;;;2.03;;
6037;SDS011;3047;42.600;23.470;2023-08-06T14:10:03;2.38;;;2.28;;
6037;SDS011;3047;42.600;23.470;2023-08-06T14:12:31;2.22;;;2.10;;
6037;SDS011;3047;42.600;23.470;2023-08-06T14:14:59;2.30;;;2.20;;
6037;SDS011;3047;42.600;23.470;2023-08-06T14:17:27;2.50;;;2.35;;
6037;SDS011;3047;42.600;23.470;2023-08-06T14:19:53;2.20;;;2.10;;
6037;SDS011;3047;42.600;23.470;2023-08-06T14:22:20;3.85;;;2.40;;
6037;SDS011;3047;42.600;23.470;2023-08-06T14:24:47;2.55;;;2.42;;
6037;SDS011;3047;42.600;23.470;2023-08-06T14:27:14;1.95;;;1.90;;
6037;SDS011;3047;42.600;23.470;2023-08-06T14:29:41;2.25;;;2.15;;
6037;SDS011;3047;42.600;23.470;2023-08-06T14:32:09;2.33;;;2.22;;
6037;SDS011;3047;42.600;23.470;2023-08-06T14:34:35;2.78;;;2.50;;
6037;SDS011;3047;42.600;23.470;2023-08-06T14:37:02;2.25;;;2.15;;
6037;SDS011;3047;42.600;23.470;2023-08-06T14:39:29;2.15;;;2.05;;
6037;SDS011;3047;42.600;23.470;2023-08-06T14:41:56;1.17;;;1.13;;
6037;SDS011;3047;42.600;23.470;2023-08-06T14:44:22;1.80;;;1.70;;
6037;SDS011;3047;42.600;23.470;2023-08-06T14:46:49;1.92;;;1.83;;
6037;SDS011;3047;42.600;23.470;2023-08-06T14:49:17;1.98;;;1.60;;
6037;SDS011;3047;42.600;23.470;2023-08-06T14:51:44;1.90;;;1.80;;
6037;SDS011;3047;42.600;23.470;2023-08-06T14:54:11;2.28;;;1.77;;
6037;SDS011;3047;42.600;23.470;2023-08-06T14:56:38;1.60;;;1.58;;
6037;SDS011;3047;42.600;23.470;2023-08-06T14:59:05;1.60;;;1.50;;
6037;SDS011;3047;42.600;23.470;2023-08-06T15:01:31;1.55;;;1.48;;
6037;SDS011;3047;42.600;23.470;2023-08-06T15:03:58;5.15;;;1.63;;
6037;SDS011;3047;42.600;23.470;2023-08-06T15:06:26;1.60;;;1.50;;
6037;SDS011;3047;42.600;23.470;2023-08-06T15:08:53;1.40;;;1.40;;
6037;SDS011;3047;42.600;23.470;2023-08-06T15:11:23;1.98;;;1.88;;
6037;SDS011;3047;42.600;23.470;2023-08-06T15:13:50;1.70;;;1.60;;
6037;SDS011;3047;42.600;23.470;2023-08-06T15:16:16;2.00;;;1.92;;
6037;SDS011;3047;42.600;23.470;2023-08-06T15:18:43;2.15;;;2.05;;
6037;SDS011;3047;42.600;23.470;2023-08-06T15:21:10;1.25;;;1.25;;
6037;SDS011;3047;42.600;23.470;2023-08-06T15:23:38;1.80;;;1.60;;
6037;SDS011;3047;42.600;23.470;2023-08-06T15:26:04;2.00;;;1.90;;
6037;SDS011;3047;42.600;23.470;2023-08-06T15:28:31;1.90;;;1.80;;
6037;SDS011;3047;42.600;23.470;2023-08-06T15:30:58;1.90;;;1.80;;
6037;SDS011;3047;42.600;23.470;2023-08-06T15:33:29;1.65;;;1.55;;
6037;SDS011;3047;42.600;23.470;2023-08-06T15:35:56;2.05;;;2.00;;
6037;SDS011;3047;42.600;23.470;2023-08-06T15:38:22;1.85;;;1.75;;
6037;SDS011;3047;42.600;23.470;2023-08-06T15:40:50;1.63;;;1.55;;
6037;SDS011;3047;42.600;23.470;2023-08-06T15:43:17;2.42;;;1.50;;
6037;SDS011;3047;42.600;23.470;2023-08-06T15:45:44;2.20;;;2.08;;
6037;SDS011;3047;42.600;23.470;2023-08-06T15:48:10;1.77;;;1.77;;
6037;SDS011;3047;42.600;23.470;2023-08-06T15:50:37;1.77;;;1.67;;
6037;SDS011;3047;42.600;23.470;2023-08-06T15:53:04;1.83;;;1.73;;
6037;SDS011;3047;42.600;23.470;2023-08-06T15:55:30;1.92;;;1.80;;
6037;SDS011;3047;42.600;23.470;2023-08-06T15:57:59;1.25;;;1.25;;
6037;SDS011;3047;42.600;23.470;2023-08-06T16:00:26;1.80;;;1.70;;
6037;SDS011;3047;42.600;23.470;2023-08-06T16:02:53;1.27;;;1.27;;
6037;SDS011;3047;42.600;23.470;2023-08-06T16:05:19;1.65;;;1.55;;
6037;SDS011;3047;42.600;23.470;2023-08-06T16:07:46;1.80;;;1.52;;
6037;SDS011;3047;42.600;23.470;2023-08-06T16:10:15;1.52;;;1.52;;
6037;SDS011;3047;42.600;23.470;2023-08-06T16:12:42;1.52;;;1.52;;
6037;SDS011;3047;42.600;23.470;2023-08-06T16:15:10;1.20;;;1.20;;
6037;SDS011;3047;42.600;23.470;2023-08-06T16:17:40;1.33;;;1.33;;
6037;SDS011;3047;42.600;23.470;2023-08-06T16:20:07;1.20;;;1.20;;
6037;SDS011;3047;42.600;23.470;2023-08-06T16:22:34;1.55;;;1.55;;
6037;SDS011;3047;42.600;23.470;2023-08-06T16:25:01;1.27;;;1.27;;
6037;SDS011;3047;42.600;23.470;2023-08-06T16:27:28;0.98;;;0.98;;
6037;SDS011;3047;42.600;23.470;2023-08-06T16:29:55;1.42;;;1.42;;
6037;SDS011;3047;42.600;23.470;2023-08-06T16:32:23;1.45;;;1.45;;
6037;SDS011;3047;42.600;23.470;2023-08-06T16:34:49;1.25;;;1.25;;